sensor_id;sensor_type;location;lat;lon;timestamp;P1;durP1;ratioP1;P2;durP2;ratioP2
72125;SDS011;59999;51.676;22.650;2023-02-28T00:01:21;10.32;;;4.00;;
72125;SDS011;59999;51.676;22.650;2023-02-28T00:03:47;11.55;;;3.35;;
72125;SDS011;59999;51.676;22.650;2023-02-28T00:06:13;10.77;;;3.57;;
72125;SDS011;59999;51.676;22.650;2023-02-28T00:08:40;11.55;;;3.47;;
72125;SDS011;59999;51.676;22.650;2023-02-28T00:11:07;9.98;;;3.72;;
72125;SDS011;59999;51.676;22.650;2023-02-28T00:13:36;11.32;;;3.67;;
72125;SDS011;59999;51.676;22.650;2023-02-28T00:16:05;9.70;;;3.17;;
72125;SDS011;59999;51.676;22.650;2023-02-28T00:18:35;11.00;;;4.10;;
72125;SDS011;59999;51.676;22.650;2023-02-28T00:21:01;9.05;;;2.88;;
72125;SDS011;59999;51.676;22.650;2023-02-28T00:23:27;10.27;;;3.45;;
72125;SDS011;59999;51.676;22.650;2023-02-28T00:25:55;11.13;;;3.95;;
72125;SDS011;59999;51.676;22.650;2023-02-28T00:28:21;12.57;;;4.30;;
72125;SDS011;59999;51.676;22.650;2023-02-28T00:30:47;22.48;;;6.95;;
72125;SDS011;59999;51.676;22.650;2023-02-28T00:33:13;11.48;;;4.30;;
72125;SDS011;59999;51.676;22.650;2023-02-28T00:35:40;30.67;;;8.27;;
72125;SDS011;59999;51.676;22.650;2023-02-28T00:38:06;12.07;;;3.80;;
72125;SDS011;59999;51.676;22.650;2023-02-28T00:40:32;18.33;;;6.00;;
72125;SDS011;59999;51.676;22.650;2023-02-28T00:42:58;21.17;;;6.95;;
72125;SDS011;59999;51.676;22.650;2023-02-28T00:45:24;14.25;;;5.25;;
72125;SDS011;59999;51.676;22.650;2023-02-28T00:47:50;11.13;;;3.90;;
72125;SDS011;59999;51.676;22.650;2023-02-28T00:50:19;19.27;;;5.93;;
72125;SDS011;59999;51.676;22.650;2023-02-28T00:52:46;22.95;;;6.93;;
72125;SDS011;59999;51.676;22.650;2023-02-28T00:55:12;28.38;;;7.60;;
72125;SDS011;59999;51.676;22.650;2023-02-28T00:57:39;33.33;;;9.23;;
72125;SDS011;59999;51.676;22.650;2023-02-28T01:00:05;12.65;;;4.13;;
72125;SDS011;59999;51.676;22.650;2023-02-28T01:02:33;14.18;;;4.47;;
72125;SDS011;59999;51.676;22.650;2023-02-28T01:04:58;22.52;;;6.53;;
72125;SDS011;59999;51.676;22.650;2023-02-28T01:07:25;37.35;;;11.13;;
72125;SDS011;59999;51.676;22.650;2023-02-28T01:09:50;13.43;;;5.03;;
72125;SDS011;59999;51.676;22.650;2023-02-28T01:12:16;13.70;;;4.47;;
72125;SDS011;59999;51.676;22.650;2023-02-28T01:14:42;9.38;;;3.90;;
72125;SDS011;59999;51.676;22.650;2023-02-28T01:17:09;14.70;;;4.40;;
72125;SDS011;59999;51.676;22.650;2023-02-28T01:19:34;16.02;;;5.10;;
72125;SDS011;59999;51.676;22.650;2023-02-28T01:22:02;15.25;;;4.93;;
72125;SDS011;59999;51.676;22.650;2023-02-28T01:24:28;9.50;;;3.88;;
72125;SDS011;59999;51.676;22.650;2023-02-28T01:26:54;13.18;;;4.28;;
72125;SDS011;59999;51.676;22.650;2023-02-28T01:29:20;12.00;;;3.70;;
72125;SDS011;59999;51.676;22.650;2023-02-28T01:31:46;10.18;;;3.92;;
72125;SDS011;59999;51.676;22.650;2023-02-28T01:34:12;12.73;;;3.80;;
72125;SDS011;59999;51.676;22.650;2023-02-28T01:36:38;7.67;;;2.87;;
72125;SDS011;59999;51.676;22.650;2023-02-28T01:39:04;11.07;;;3.28;;
72125;SDS011;59999;51.676;22.650;2023-02-28T01:41:32;25.40;;;8.68;;
72125;SDS011;59999;51.676;22.650;2023-02-28T01:46:33;10.25;;;3.38;;
72125;SDS011;59999;51.676;22.650;2023-02-28T01:49:11;12.07;;;3.30;;
72125;SDS011;59999;51.676;22.650;2023-02-28T01:51:41;15.45;;;4.88;;
72125;SDS011;59999;51.676;22.650;2023-02-28T01:54:12;13.35;;;4.53;;
72125;SDS011;59999;51.676;22.650;2023-02-28T01:57:15;10.13;;;3.20;;
72125;SDS011;59999;51.676;22.650;2023-02-28T02:02:20;10.45;;;3.17;;
72125;SDS011;59999;51.676;22.650;2023-02-28T02:04:55;8.05;;;2.70;;
72125;SDS011;59999;51.676;22.650;2023-02-28T02:07:28;10.73;;;3.47;;
72125;SDS011;59999;51.676;22.650;2023-02-28T02:10:12;11.57;;;3.50;;
72125;SDS011;59999;51.676;22.650;2023-02-28T02:12:51;9.65;;;3.28;;
72125;SDS011;59999;51.676;22.650;2023-02-28T02:32:28;13.30;;;3.63;;
72125;SDS011;59999;51.676;22.650;2023-02-28T02:37:58;8.63;;;2.77;;
72125;SDS011;59999;51.676;22.650;2023-02-28T02:40:35;10.43;;;3.08;;
72125;SDS011;59999;51.676;22.650;2023-02-28T02:43:19;9.45;;;2.60;;
72125;SDS011;59999;51.676;22.650;2023-02-28T02:48:54;8.52;;;2.88;;
72125;SDS011;59999;51.676;22.650;2023-02-28T02:51:23;11.53;;;3.00;;
72125;SDS011;59999;51.676;22.650;2023-02-28T02:53:51;9.40;;;3.10;;
72125;SDS011;59999;51.676;22.650;2023-02-28T02:56:24;10.10;;;3.17;;
72125;SDS011;59999;51.676;22.650;2023-02-28T02:58:54;8.95;;;3.30;;
72125;SDS011;59999;51.676;22.650;2023-02-28T03:01:24;11.65;;;3.67;;
72125;SDS011;59999;51.676;22.650;2023-02-28T03:03:55;9.17;;;3.40;;
72125;SDS011;59999;51.676;22.650;2023-02-28T03:06:24;12.75;;;4.30;;
72125;SDS011;59999;51.676;22.650;2023-02-28T03:08:50;11.05;;;4.47;;
72125;SDS011;59999;51.676;22.650;2023-02-28T03:11:16;11.07;;;3.90;;
72125;SDS011;59999;51.676;22.650;2023-02-28T03:22:13;9.38;;;3.25;;
72125;SDS011;59999;51.676;22.650;2023-02-28T03:25:10;9.40;;;3.40;;
72125;SDS011;59999;51.676;22.650;2023-02-28T03:30:32;10.23;;;3.47;;
72125;SDS011;59999;51.676;22.650;2023-02-28T03:35:49;11.85;;;3.55;;
72125;SDS011;59999;51.676;22.650;2023-02-28T03:38:20;10.95;;;3.03;;
72125;SDS011;59999;51.676;22.650;2023-02-28T03:40:48;11.53;;;3.57;;
72125;SDS011;59999;51.676;22.650;2023-02-28T03:43:29;9.80;;;3.45;;
72125;SDS011;59999;51.676;22.650;2023-02-28T03:45:59;11.90;;;3.78;;
72125;SDS011;59999;51.676;22.650;2023-02-28T03:48:32;11.73;;;3.60;;
72125;SDS011;59999;51.676;22.650;2023-02-28T03:51:06;10.05;;;3.65;;
72125;SDS011;59999;51.676;22.650;2023-02-28T03:53:40;9.97;;;3.83;;
72125;SDS011;59999;51.676;22.650;2023-02-28T03:56:13;10.73;;;4.18;;
72125;SDS011;59999;51.676;22.650;2023-02-28T03:59:00;11.90;;;4.40;;
72125;SDS011;59999;51.676;22.650;2023-02-28T04:01:30;11.63;;;3.80;;
72125;SDS011;59999;51.676;22.650;2023-02-28T04:04:01;11.35;;;3.70;;
72125;SDS011;59999;51.676;22.650;2023-02-28T04:06:28;11.30;;;4.20;;
72125;SDS011;59999;51.676;22.650;2023-02-28T04:08:57;10.63;;;4.15;;
72125;SDS011;59999;51.676;22.650;2023-02-28T04:11:36;11.77;;;4.03;;
72125;SDS011;59999;51.676;22.650;2023-02-28T04:14:08;11.02;;;3.83;;
72125;SDS011;59999;51.676;22.650;2023-02-28T04:16:36;11.02;;;3.60;;
72125;SDS011;59999;51.676;22.650;2023-02-28T04:19:04;14.87;;;3.97;;
72125;SDS011;59999;51.676;22.650;2023-02-28T04:21:33;11.25;;;4.05;;
72125;SDS011;59999;51.676;22.650;2023-02-28T04:24:12;10.73;;;3.90;;
72125;SDS011;59999;51.676;22.650;2023-02-28T04:26:41;10.77;;;3.90;;
72125;SDS011;59999;51.676;22.650;2023-02-28T04:29:12;10.50;;;3.72;;
72125;SDS011;59999;51.676;22.650;2023-02-28T04:31:39;10.20;;;3.80;;
72125;SDS011;59999;51.676;22.650;2023-02-28T04:34:06;9.95;;;3.70;;
72125;SDS011;59999;51.676;22.650;2023-02-28T04:36:32;11.77;;;4.32;;
72125;SDS011;59999;51.676;22.650;2023-02-28T04:38:58;11.95;;;4.03;;
72125;SDS011;59999;51.676;22.650;2023-02-28T04:41:24;14.43;;;4.13;;
72125;SDS011;59999;51.676;22.650;2023-02-28T04:43:53;12.73;;;4.40;;
72125;SDS011;59999;51.676;22.650;2023-02-28T04:46:19;12.13;;;3.83;;
72125;SDS011;59999;51.676;22.650;2023-02-28T04:48:45;10.55;;;4.03;;
72125;SDS011;59999;51.676;22.650;2023-02-28T04:51:12;9.67;;;3.37;;
72125;SDS011;59999;51.676;22.650;2023-02-28T04:53:39;12.10;;;3.60;;
72125;SDS011;59999;51.676;22.650;2023-02-28T04:56:07;9.93;;;3.70;;
72125;SDS011;59999;51.676;22.650;2023-02-28T04:58:34;11.02;;;3.83;;
72125;SDS011;59999;51.676;22.650;2023-02-28T05:01:04;10.63;;;3.58;;
72125;SDS011;59999;51.676;22.650;2023-02-28T05:03:51;10.40;;;3.70;;
72125;SDS011;59999;51.676;22.650;2023-02-28T05:06:18;8.82;;;2.92;;
72125;SDS011;59999;51.676;22.650;2023-02-28T05:08:46;10.20;;;3.97;;
72125;SDS011;59999;51.676;22.650;2023-02-28T05:11:14;15.15;;;5.78;;
72125;SDS011;59999;51.676;22.650;2023-02-28T05:13:49;9.70;;;3.50;;
72125;SDS011;59999;51.676;22.650;2023-02-28T05:16:15;9.83;;;3.30;;
72125;SDS011;59999;51.676;22.650;2023-02-28T05:18:41;11.13;;;3.53;;
72125;SDS011;59999;51.676;22.650;2023-02-28T05:21:24;8.50;;;2.75;;
72125;SDS011;59999;51.676;22.650;2023-02-28T05:23:51;11.13;;;3.33;;
72125;SDS011;59999;51.676;22.650;2023-02-28T05:26:17;9.60;;;3.20;;
72125;SDS011;59999;51.676;22.650;2023-02-28T05:28:44;10.65;;;3.42;;
72125;SDS011;59999;51.676;22.650;2023-02-28T05:31:12;9.00;;;3.50;;
72125;SDS011;59999;51.676;22.650;2023-02-28T05:33:38;9.32;;;3.40;;
72125;SDS011;59999;51.676;22.650;2023-02-28T05:36:05;10.03;;;2.80;;
72125;SDS011;59999;51.676;22.650;2023-02-28T05:38:31;10.90;;;2.70;;
72125;SDS011;59999;51.676;22.650;2023-02-28T05:40:57;9.63;;;3.53;;
72125;SDS011;59999;51.676;22.650;2023-02-28T05:43:23;8.18;;;2.90;;
72125;SDS011;59999;51.676;22.650;2023-02-28T05:45:49;9.60;;;3.10;;
72125;SDS011;59999;51.676;22.650;2023-02-28T05:48:15;10.50;;;3.28;;
72125;SDS011;59999;51.676;22.650;2023-02-28T05:50:43;9.77;;;3.05;;
72125;SDS011;59999;51.676;22.650;2023-02-28T05:53:11;13.10;;;3.28;;
72125;SDS011;59999;51.676;22.650;2023-02-28T05:55:37;9.47;;;3.37;;
72125;SDS011;59999;51.676;22.650;2023-02-28T05:58:03;11.48;;;3.78;;
72125;SDS011;59999;51.676;22.650;2023-02-28T06:00:29;8.63;;;3.08;;
72125;SDS011;59999;51.676;22.650;2023-02-28T06:02:55;10.80;;;3.60;;
72125;SDS011;59999;51.676;22.650;2023-02-28T06:05:23;12.33;;;3.47;;
72125;SDS011;59999;51.676;22.650;2023-02-28T06:07:50;12.23;;;3.67;;
72125;SDS011;59999;51.676;22.650;2023-02-28T06:10:15;11.68;;;3.78;;
72125;SDS011;59999;51.676;22.650;2023-02-28T06:12:42;11.68;;;3.58;;
72125;SDS011;59999;51.676;22.650;2023-02-28T06:15:17;10.03;;;3.73;;
72125;SDS011;59999;51.676;22.650;2023-02-28T06:17:43;10.60;;;3.70;;
72125;SDS011;59999;51.676;22.650;2023-02-28T06:20:10;11.60;;;3.35;;
72125;SDS011;59999;51.676;22.650;2023-02-28T06:22:38;10.23;;;3.90;;
72125;SDS011;59999;51.676;22.650;2023-02-28T06:25:05;9.10;;;3.33;;
72125;SDS011;59999;51.676;22.650;2023-02-28T06:27:33;11.77;;;4.35;;
72125;SDS011;59999;51.676;22.650;2023-02-28T06:29:59;11.23;;;3.67;;
72125;SDS011;59999;51.676;22.650;2023-02-28T06:32:25;11.43;;;4.03;;
72125;SDS011;59999;51.676;22.650;2023-02-28T06:34:51;12.55;;;4.07;;
72125;SDS011;59999;51.676;22.650;2023-02-28T06:37:17;13.00;;;4.43;;
72125;SDS011;59999;51.676;22.650;2023-02-28T06:39:43;11.43;;;3.55;;
72125;SDS011;59999;51.676;22.650;2023-02-28T06:42:10;10.98;;;3.83;;
72125;SDS011;59999;51.676;22.650;2023-02-28T06:44:36;11.23;;;4.07;;
72125;SDS011;59999;51.676;22.650;2023-02-28T06:47:02;11.27;;;3.40;;
72125;SDS011;59999;51.676;22.650;2023-02-28T06:49:30;10.50;;;3.63;;
72125;SDS011;59999;51.676;22.650;2023-02-28T06:51:57;10.98;;;3.40;;
72125;SDS011;59999;51.676;22.650;2023-02-28T06:54:22;11.20;;;4.60;;
72125;SDS011;59999;51.676;22.650;2023-02-28T06:56:49;12.20;;;4.50;;
72125;SDS011;59999;51.676;22.650;2023-02-28T06:59:15;12.13;;;4.03;;
72125;SDS011;59999;51.676;22.650;2023-02-28T07:01:41;10.15;;;3.45;;
72125;SDS011;59999;51.676;22.650;2023-02-28T07:04:07;10.97;;;3.80;;
72125;SDS011;59999;51.676;22.650;2023-02-28T07:06:34;9.98;;;3.95;;
72125;SDS011;59999;51.676;22.650;2023-02-28T07:09:00;9.55;;;3.67;;
72125;SDS011;59999;51.676;22.650;2023-02-28T07:11:26;9.40;;;3.38;;
72125;SDS011;59999;51.676;22.650;2023-02-28T07:13:53;7.90;;;3.05;;
72125;SDS011;59999;51.676;22.650;2023-02-28T07:16:20;10.33;;;3.37;;
72125;SDS011;59999;51.676;22.650;2023-02-28T07:18:47;9.93;;;3.33;;
72125;SDS011;59999;51.676;22.650;2023-02-28T07:21:14;9.82;;;3.50;;
72125;SDS011;59999;51.676;22.650;2023-02-28T07:23:40;9.75;;;3.70;;
72125;SDS011;59999;51.676;22.650;2023-02-28T07:26:10;10.68;;;4.30;;
72125;SDS011;59999;51.676;22.650;2023-02-28T07:28:40;8.30;;;3.43;;
72125;SDS011;59999;51.676;22.650;2023-02-28T07:31:08;11.88;;;4.05;;
72125;SDS011;59999;51.676;22.650;2023-02-28T07:33:35;11.10;;;4.05;;
72125;SDS011;59999;51.676;22.650;2023-02-28T07:36:05;11.52;;;3.90;;
72125;SDS011;59999;51.676;22.650;2023-02-28T07:38:34;12.07;;;4.03;;
72125;SDS011;59999;51.676;22.650;2023-02-28T07:41:02;10.47;;;3.73;;
72125;SDS011;59999;51.676;22.650;2023-02-28T07:43:31;12.43;;;4.03;;
72125;SDS011;59999;51.676;22.650;2023-02-28T07:46:02;9.57;;;3.90;;
72125;SDS011;59999;51.676;22.650;2023-02-28T07:48:32;10.25;;;4.00;;
72125;SDS011;59999;51.676;22.650;2023-02-28T07:50:59;8.68;;;3.50;;
72125;SDS011;59999;51.676;22.650;2023-02-28T07:53:26;9.70;;;4.10;;
72125;SDS011;59999;51.676;22.650;2023-02-28T07:55:59;11.10;;;3.92;;
72125;SDS011;59999;51.676;22.650;2023-02-28T07:58:26;12.00;;;4.03;;
72125;SDS011;59999;51.676;22.650;2023-02-28T08:00:53;10.40;;;4.00;;
72125;SDS011;59999;51.676;22.650;2023-02-28T08:03:19;9.73;;;3.80;;
72125;SDS011;59999;51.676;22.650;2023-02-28T08:05:47;10.35;;;4.03;;
72125;SDS011;59999;51.676;22.650;2023-02-28T08:08:14;11.13;;;3.60;;
72125;SDS011;59999;51.676;22.650;2023-02-28T08:10:41;12.32;;;4.30;;
72125;SDS011;59999;51.676;22.650;2023-02-28T08:13:07;10.35;;;4.47;;
72125;SDS011;59999;51.676;22.650;2023-02-28T08:15:33;10.93;;;3.87;;
72125;SDS011;59999;51.676;22.650;2023-02-28T08:17:59;13.85;;;4.22;;
72125;SDS011;59999;51.676;22.650;2023-02-28T08:20:25;13.57;;;4.72;;
72125;SDS011;59999;51.676;22.650;2023-02-28T08:22:52;12.97;;;4.17;;
72125;SDS011;59999;51.676;22.650;2023-02-28T08:25:18;12.35;;;4.45;;
72125;SDS011;59999;51.676;22.650;2023-02-28T08:27:44;10.52;;;4.03;;
72125;SDS011;59999;51.676;22.650;2023-02-28T08:30:11;11.50;;;4.25;;
72125;SDS011;59999;51.676;22.650;2023-02-28T08:32:38;11.10;;;4.43;;
72125;SDS011;59999;51.676;22.650;2023-02-28T08:35:04;15.23;;;5.50;;
72125;SDS011;59999;51.676;22.650;2023-02-28T08:37:31;13.43;;;5.40;;
72125;SDS011;59999;51.676;22.650;2023-02-28T08:39:57;12.40;;;4.90;;
72125;SDS011;59999;51.676;22.650;2023-02-28T08:42:23;12.05;;;4.70;;
72125;SDS011;59999;51.676;22.650;2023-02-28T08:44:49;15.07;;;5.60;;
72125;SDS011;59999;51.676;22.650;2023-02-28T08:47:15;12.55;;;4.63;;
72125;SDS011;59999;51.676;22.650;2023-02-28T08:49:42;15.38;;;6.47;;
72125;SDS011;59999;51.676;22.650;2023-02-28T08:52:07;14.20;;;5.57;;
72125;SDS011;59999;51.676;22.650;2023-02-28T08:54:34;14.05;;;5.47;;
72125;SDS011;59999;51.676;22.650;2023-02-28T08:57:01;14.13;;;5.85;;
72125;SDS011;59999;51.676;22.650;2023-02-28T08:59:28;16.42;;;7.07;;
72125;SDS011;59999;51.676;22.650;2023-02-28T09:01:54;21.05;;;9.63;;
72125;SDS011;59999;51.676;22.650;2023-02-28T09:04:21;17.37;;;7.53;;
72125;SDS011;59999;51.676;22.650;2023-02-28T09:06:47;19.23;;;7.63;;
72125;SDS011;59999;51.676;22.650;2023-02-28T09:09:14;15.50;;;5.55;;
72125;SDS011;59999;51.676;22.650;2023-02-28T09:11:40;16.98;;;5.95;;
72125;SDS011;59999;51.676;22.650;2023-02-28T09:14:07;13.98;;;5.65;;
72125;SDS011;59999;51.676;22.650;2023-02-28T09:16:33;18.57;;;6.80;;
72125;SDS011;59999;51.676;22.650;2023-02-28T09:19:00;17.60;;;6.30;;
72125;SDS011;59999;51.676;22.650;2023-02-28T09:21:27;15.52;;;6.03;;
72125;SDS011;59999;51.676;22.650;2023-02-28T09:23:53;15.63;;;5.68;;
72125;SDS011;59999;51.676;22.650;2023-02-28T09:26:23;14.65;;;6.03;;
72125;SDS011;59999;51.676;22.650;2023-02-28T09:28:50;14.77;;;6.07;;
72125;SDS011;59999;51.676;22.650;2023-02-28T09:31:18;17.27;;;7.22;;
72125;SDS011;59999;51.676;22.650;2023-02-28T09:33:50;13.70;;;6.30;;
72125;SDS011;59999;51.676;22.650;2023-02-28T09:36:18;13.68;;;6.15;;
72125;SDS011;59999;51.676;22.650;2023-02-28T09:38:45;16.40;;;6.70;;
72125;SDS011;59999;51.676;22.650;2023-02-28T09:41:32;15.93;;;6.13;;
72125;SDS011;59999;51.676;22.650;2023-02-28T09:44:05;14.75;;;5.32;;
72125;SDS011;59999;51.676;22.650;2023-02-28T09:46:44;13.20;;;5.57;;
72125;SDS011;59999;51.676;22.650;2023-02-28T09:49:14;12.00;;;5.32;;
72125;SDS011;59999;51.676;22.650;2023-02-28T09:54:18;16.33;;;6.20;;
72125;SDS011;59999;51.676;22.650;2023-02-28T09:56:48;14.75;;;5.65;;
72125;SDS011;59999;51.676;22.650;2023-02-28T10:04:37;15.40;;;6.75;;
72125;SDS011;59999;51.676;22.650;2023-02-28T10:10:29;18.73;;;7.28;;
72125;SDS011;59999;51.676;22.650;2023-02-28T10:13:01;14.88;;;6.45;;
72125;SDS011;59999;51.676;22.650;2023-02-28T10:15:32;13.63;;;5.90;;
72125;SDS011;59999;51.676;22.650;2023-02-28T10:18:01;14.85;;;5.82;;
72125;SDS011;59999;51.676;22.650;2023-02-28T10:20:32;15.40;;;6.87;;
72125;SDS011;59999;51.676;22.650;2023-02-28T10:25:39;15.15;;;6.63;;
72125;SDS011;59999;51.676;22.650;2023-02-28T10:28:09;17.17;;;7.13;;
72125;SDS011;59999;51.676;22.650;2023-02-28T10:30:38;14.25;;;6.15;;
72125;SDS011;59999;51.676;22.650;2023-02-28T10:33:11;16.30;;;6.40;;
72125;SDS011;59999;51.676;22.650;2023-02-28T10:35:44;16.35;;;6.78;;
72125;SDS011;59999;51.676;22.650;2023-02-28T10:38:14;14.43;;;5.90;;
72125;SDS011;59999;51.676;22.650;2023-02-28T10:40:43;16.02;;;6.20;;
72125;SDS011;59999;51.676;22.650;2023-02-28T10:45:39;16.03;;;6.37;;
72125;SDS011;59999;51.676;22.650;2023-02-28T10:48:50;15.85;;;5.80;;
72125;SDS011;59999;51.676;22.650;2023-02-28T10:51:26;17.13;;;6.40;;
72125;SDS011;59999;51.676;22.650;2023-02-28T10:54:03;15.23;;;6.32;;
72125;SDS011;59999;51.676;22.650;2023-02-28T10:56:30;17.35;;;6.45;;
72125;SDS011;59999;51.676;22.650;2023-02-28T10:59:01;14.07;;;6.37;;
72125;SDS011;59999;51.676;22.650;2023-02-28T11:09:44;15.20;;;6.18;;
72125;SDS011;59999;51.676;22.650;2023-02-28T11:12:20;16.83;;;7.03;;
72125;SDS011;59999;51.676;22.650;2023-02-28T11:14:49;16.35;;;6.88;;
72125;SDS011;59999;51.676;22.650;2023-02-28T11:17:24;17.90;;;7.47;;
72125;SDS011;59999;51.676;22.650;2023-02-28T11:20:04;16.70;;;7.25;;
72125;SDS011;59999;51.676;22.650;2023-02-28T11:22:35;19.70;;;7.45;;
72125;SDS011;59999;51.676;22.650;2023-02-28T11:25:26;16.97;;;6.13;;
72125;SDS011;59999;51.676;22.650;2023-02-28T11:27:53;17.15;;;6.22;;
72125;SDS011;59999;51.676;22.650;2023-02-28T11:30:27;15.00;;;6.22;;
72125;SDS011;59999;51.676;22.650;2023-02-28T11:35:48;18.33;;;6.10;;
72125;SDS011;59999;51.676;22.650;2023-02-28T11:38:16;14.60;;;5.90;;
72125;SDS011;59999;51.676;22.650;2023-02-28T11:48:33;16.17;;;6.60;;
72125;SDS011;59999;51.676;22.650;2023-02-28T11:51:30;19.10;;;7.18;;
72125;SDS011;59999;51.676;22.650;2023-02-28T11:56:58;15.20;;;6.63;;
72125;SDS011;59999;51.676;22.650;2023-02-28T12:02:05;22.58;;;10.80;;
72125;SDS011;59999;51.676;22.650;2023-02-28T12:04:47;17.98;;;6.60;;
72125;SDS011;59999;51.676;22.650;2023-02-28T12:15:22;14.57;;;6.32;;
72125;SDS011;59999;51.676;22.650;2023-02-28T12:23:10;17.73;;;8.52;;
72125;SDS011;59999;51.676;22.650;2023-02-28T12:28:54;16.23;;;7.22;;
72125;SDS011;59999;51.676;22.650;2023-02-28T12:31:51;17.75;;;7.38;;
72125;SDS011;59999;51.676;22.650;2023-02-28T12:34:23;21.50;;;7.63;;
72125;SDS011;59999;51.676;22.650;2023-02-28T12:36:54;17.20;;;7.93;;
72125;SDS011;59999;51.676;22.650;2023-02-28T12:39:25;17.50;;;6.83;;
72125;SDS011;59999;51.676;22.650;2023-02-28T12:41:56;16.50;;;7.15;;
72125;SDS011;59999;51.676;22.650;2023-02-28T12:44:30;16.63;;;7.35;;
72125;SDS011;59999;51.676;22.650;2023-02-28T12:47:10;16.10;;;7.07;;
72125;SDS011;59999;51.676;22.650;2023-02-28T12:52:17;16.87;;;7.37;;
72125;SDS011;59999;51.676;22.650;2023-02-28T12:54:51;17.90;;;7.43;;
72125;SDS011;59999;51.676;22.650;2023-02-28T12:57:36;15.45;;;7.18;;
72125;SDS011;59999;51.676;22.650;2023-02-28T13:02:56;18.00;;;7.28;;
72125;SDS011;59999;51.676;22.650;2023-02-28T13:13:57;32.10;;;10.93;;
72125;SDS011;59999;51.676;22.650;2023-02-28T13:19:33;14.98;;;6.65;;
72125;SDS011;59999;51.676;22.650;2023-02-28T13:22:01;14.77;;;6.95;;
72125;SDS011;59999;51.676;22.650;2023-02-28T13:24:40;17.52;;;6.88;;
72125;SDS011;59999;51.676;22.650;2023-02-28T13:29:36;22.73;;;9.77;;
72125;SDS011;59999;51.676;22.650;2023-02-28T13:39:59;21.70;;;9.18;;
72125;SDS011;59999;51.676;22.650;2023-02-28T13:42:36;18.73;;;9.18;;
72125;SDS011;59999;51.676;22.650;2023-02-28T14:06:41;18.05;;;7.82;;
72125;SDS011;59999;51.676;22.650;2023-02-28T14:11:50;16.80;;;7.35;;
72125;SDS011;59999;51.676;22.650;2023-02-28T14:17:02;14.90;;;6.43;;
72125;SDS011;59999;51.676;22.650;2023-02-28T14:19:31;18.08;;;7.22;;
72125;SDS011;59999;51.676;22.650;2023-02-28T14:22:09;19.10;;;7.60;;
72125;SDS011;59999;51.676;22.650;2023-02-28T14:27:45;15.43;;;6.88;;
72125;SDS011;59999;51.676;22.650;2023-02-28T14:30:42;21.27;;;7.80;;
72125;SDS011;59999;51.676;22.650;2023-02-28T14:36:30;23.07;;;8.80;;
72125;SDS011;59999;51.676;22.650;2023-02-28T14:39:22;18.77;;;7.70;;
72125;SDS011;59999;51.676;22.650;2023-02-28T14:41:48;17.98;;;7.97;;
72125;SDS011;59999;51.676;22.650;2023-02-28T14:46:45;14.75;;;6.93;;
72125;SDS011;59999;51.676;22.650;2023-02-28T14:52:01;24.35;;;8.65;;
72125;SDS011;59999;51.676;22.650;2023-02-28T14:54:40;21.73;;;8.52;;
72125;SDS011;59999;51.676;22.650;2023-02-28T14:57:20;16.50;;;7.20;;
72125;SDS011;59999;51.676;22.650;2023-02-28T15:00:02;29.48;;;11.55;;
72125;SDS011;59999;51.676;22.650;2023-02-28T15:02:40;29.50;;;10.90;;
72125;SDS011;59999;51.676;22.650;2023-02-28T15:07:44;20.48;;;8.50;;
72125;SDS011;59999;51.676;22.650;2023-02-28T15:20:56;19.20;;;8.00;;
72125;SDS011;59999;51.676;22.650;2023-02-28T15:23:34;22.85;;;9.23;;
72125;SDS011;59999;51.676;22.650;2023-02-28T15:26:02;39.72;;;15.10;;
72125;SDS011;59999;51.676;22.650;2023-02-28T15:28:28;44.60;;;16.33;;
72125;SDS011;59999;51.676;22.650;2023-02-28T15:30:59;50.42;;;17.00;;
72125;SDS011;59999;51.676;22.650;2023-02-28T15:33:31;116.78;;;44.58;;
72125;SDS011;59999;51.676;22.650;2023-02-28T15:36:32;77.20;;;32.53;;
72125;SDS011;59999;51.676;22.650;2023-02-28T15:38:54;33.05;;;13.30;;
72125;SDS011;59999;51.676;22.650;2023-02-28T15:41:30;26.33;;;12.73;;
72125;SDS011;59999;51.676;22.650;2023-02-28T15:46:59;61.65;;;26.77;;
72125;SDS011;59999;51.676;22.650;2023-02-28T15:49:44;59.00;;;22.35;;
72125;SDS011;59999;51.676;22.650;2023-02-28T15:52:14;50.63;;;20.38;;
72125;SDS011;59999;51.676;22.650;2023-02-28T15:54:42;40.40;;;18.73;;
72125;SDS011;59999;51.676;22.650;2023-02-28T15:57:13;46.88;;;20.38;;
72125;SDS011;59999;51.676;22.650;2023-02-28T16:00:09;42.67;;;17.00;;
72125;SDS011;59999;51.676;22.650;2023-02-28T16:02:36;25.95;;;11.45;;
72125;SDS011;59999;51.676;22.650;2023-02-28T16:07:37;55.93;;;21.10;;
72125;SDS011;59999;51.676;22.650;2023-02-28T16:10:05;45.00;;;19.10;;
72125;SDS011;59999;51.676;22.650;2023-02-28T16:12:33;27.73;;;11.38;;
72125;SDS011;59999;51.676;22.650;2023-02-28T16:15:02;36.58;;;14.55;;
72125;SDS011;59999;51.676;22.650;2023-02-28T16:17:34;53.08;;;19.10;;
72125;SDS011;59999;51.676;22.650;2023-02-28T16:20:06;53.63;;;19.67;;
72125;SDS011;59999;51.676;22.650;2023-02-28T16:22:39;53.13;;;19.60;;
72125;SDS011;59999;51.676;22.650;2023-02-28T16:25:10;50.47;;;20.50;;
72125;SDS011;59999;51.676;22.650;2023-02-28T16:27:37;85.97;;;32.00;;
72125;SDS011;59999;51.676;22.650;2023-02-28T16:30:04;106.35;;;45.63;;
72125;SDS011;59999;51.676;22.650;2023-02-28T16:32:41;76.07;;;32.70;;
72125;SDS011;59999;51.676;22.650;2023-02-28T16:35:09;100.82;;;38.30;;
72125;SDS011;59999;51.676;22.650;2023-02-28T16:37:36;90.47;;;37.42;;
72125;SDS011;59999;51.676;22.650;2023-02-28T16:40:03;64.53;;;28.25;;
72125;SDS011;59999;51.676;22.650;2023-02-28T16:42:29;80.82;;;35.72;;
72125;SDS011;59999;51.676;22.650;2023-02-28T16:44:56;45.80;;;19.13;;
72125;SDS011;59999;51.676;22.650;2023-02-28T16:47:23;35.58;;;13.75;;
72125;SDS011;59999;51.676;22.650;2023-02-28T16:49:52;34.83;;;13.73;;
72125;SDS011;59999;51.676;22.650;2023-02-28T16:52:18;38.78;;;13.57;;
72125;SDS011;59999;51.676;22.650;2023-02-28T16:54:44;103.60;;;25.63;;
72125;SDS011;59999;51.676;22.650;2023-02-28T16:57:15;390.15;;;96.93;;
72125;SDS011;59999;51.676;22.650;2023-02-28T16:59:46;221.32;;;51.65;;
72125;SDS011;59999;51.676;22.650;2023-02-28T17:02:16;86.47;;;25.10;;
72125;SDS011;59999;51.676;22.650;2023-02-28T17:04:44;90.60;;;28.93;;
72125;SDS011;59999;51.676;22.650;2023-02-28T17:07:11;107.45;;;32.67;;
72125;SDS011;59999;51.676;22.650;2023-02-28T17:09:39;151.52;;;44.22;;
72125;SDS011;59999;51.676;22.650;2023-02-28T17:12:06;359.48;;;116.40;;
72125;SDS011;59999;51.676;22.650;2023-02-28T17:14:32;271.58;;;83.32;;
72125;SDS011;59999;51.676;22.650;2023-02-28T17:16:59;220.23;;;68.07;;
72125;SDS011;59999;51.676;22.650;2023-02-28T17:19:24;222.60;;;59.75;;
72125;SDS011;59999;51.676;22.650;2023-02-28T17:21:51;200.30;;;52.88;;
72125;SDS011;59999;51.676;22.650;2023-02-28T17:24:16;300.10;;;72.50;;
72125;SDS011;59999;51.676;22.650;2023-02-28T17:26:42;220.00;;;69.13;;
72125;SDS011;59999;51.676;22.650;2023-02-28T17:29:19;264.17;;;80.30;;
72125;SDS011;59999;51.676;22.650;2023-02-28T17:31:46;307.67;;;87.50;;
72125;SDS011;59999;51.676;22.650;2023-02-28T17:34:12;203.00;;;65.15;;
72125;SDS011;59999;51.676;22.650;2023-02-28T17:36:44;147.33;;;52.90;;
72125;SDS011;59999;51.676;22.650;2023-02-28T17:39:12;157.48;;;54.13;;
72125;SDS011;59999;51.676;22.650;2023-02-28T17:41:47;125.47;;;42.80;;